sensor_id;sensor_type;location;lat;lon;timestamp;temperature;humidity
3792;DHT22;1911;53.768;11.474;2022-07-23T00:01:29;16.20;1.00
3792;DHT22;1911;53.768;11.474;2022-07-23T00:03:56;16.20;1.00
3792;DHT22;1911;53.768;11.474;2022-07-23T00:06:22;16.20;1.00
3792;DHT22;1911;53.768;11.474;2022-07-23T00:08:48;16.20;1.00
3792;DHT22;1911;53.768;11.474;2022-07-23T00:11:14;16.10;1.00
3792;DHT22;1911;53.768;11.474;2022-07-23T00:13:39;16.10;1.00
3792;DHT22;1911;53.768;11.474;2022-07-23T00:16:05;16.10;1.00
3792;DHT22;1911;53.768;11.474;2022-07-23T00:18:31;16.10;1.00
3792;DHT22;1911;53.768;11.474;2022-07-23T00:20:57;16.10;1.00
3792;DHT22;1911;53.768;11.474;2022-07-23T00:23:22;16.10;1.00
3792;DHT22;1911;53.768;11.474;2022-07-23T00:25:48;16.10;1.00
3792;DHT22;1911;53.768;11.474;2022-07-23T00:28:13;16.10;1.00
3792;DHT22;1911;53.768;11.474;2022-07-23T00:30:39;16.10;1.00
3792;DHT22;1911;53.768;11.474;2022-07-23T00:33:07;16.10;1.00
3792;DHT22;1911;53.768;11.474;2022-07-23T00:35:35;16.10;1.00
3792;DHT22;1911;53.768;11.474;2022-07-23T00:38:02;16.10;1.00
3792;DHT22;1911;53.768;11.474;2022-07-23T00:40:29;16.10;1.00
3792;DHT22;1911;53.768;11.474;2022-07-23T00:42:55;16.10;1.00
3792;DHT22;1911;53.768;11.474;2022-07-23T00:45:21;16.10;1.00
3792;DHT22;1911;53.768;11.474;2022-07-23T00:47:47;16.10;1.00
3792;DHT22;1911;53.768;11.474;2022-07-23T00:50:13;16.10;1.00
3792;DHT22;1911;53.768;11.474;2022-07-23T00:52:39;16.10;1.00
3792;DHT22;1911;53.768;11.474;2022-07-23T00:55:07;16.00;1.00
3792;DHT22;1911;53.768;11.474;2022-07-23T00:57:33;15.90;1.00
3792;DHT22;1911;53.768;11.474;2022-07-23T00:59:59;15.90;1.00
3792;DHT22;1911;53.768;11.474;2022-07-23T01:02:26;15.80;1.00
3792;DHT22;1911;53.768;11.474;2022-07-23T01:04:52;15.80;1.00
3792;DHT22;1911;53.768;11.474;2022-07-23T01:07:18;15.80;1.00
3792;DHT22;1911;53.768;11.474;2022-07-23T01:09:45;15.70;1.00
3792;DHT22;1911;53.768;11.474;2022-07-23T01:12:11;15.70;1.00
3792;DHT22;1911;53.768;11.474;2022-07-23T01:14:37;15.70;1.00
3792;DHT22;1911;53.768;11.474;2022-07-23T01:17:03;15.70;1.00
3792;DHT22;1911;53.768;11.474;2022-07-23T01:19:29;15.70;1.00
3792;DHT22;1911;53.768;11.474;2022-07-23T01:21:57;15.70;1.00
3792;DHT22;1911;53.768;11.474;2022-07-23T01:24:23;15.70;1.00
3792;DHT22;1911;53.768;11.474;2022-07-23T01:26:49;15.70;1.00
3792;DHT22;1911;53.768;11.474;2022-07-23T01:29:16;15.60;1.00
3792;DHT22;1911;53.768;11.474;2022-07-23T01:31:42;15.60;1.00
3792;DHT22;1911;53.768;11.474;2022-07-23T01:34:08;15.60;1.00
3792;DHT22;1911;53.768;11.474;2022-07-23T01:36:34;15.60;1.00
3792;DHT22;1911;53.768;11.474;2022-07-23T01:39:00;15.60;1.00
3792;DHT22;1911;53.768;11.474;2022-07-23T01:41:26;15.50;1.00
3792;DHT22;1911;53.768;11.474;2022-07-23T01:43:52;15.50;1.00
3792;DHT22;1911;53.768;11.474;2022-07-23T01:46:17;15.50;1.00
3792;DHT22;1911;53.768;11.474;2022-07-23T01:48:43;15.50;1.00
3792;DHT22;1911;53.768;11.474;2022-07-23T01:51:08;15.40;29.10
3792;DHT22;1911;53.768;11.474;2022-07-23T01:53:34;15.40;91.60
3792;DHT22;1911;53.768;11.474;2022-07-23T01:56:00;15.40;97.80
3792;DHT22;1911;53.768;11.474;2022-07-23T01:58:27;15.30;99.90
3792;DHT22;1911;53.768;11.474;2022-07-23T02:00:53;15.30;99.90
3792;DHT22;1911;53.768;11.474;2022-07-23T02:03:19;15.30;99.90
3792;DHT22;1911;53.768;11.474;2022-07-23T02:05:45;15.30;99.90
3792;DHT22;1911;53.768;11.474;2022-07-23T02:08:10;15.20;99.90
3792;DHT22;1911;53.768;11.474;2022-07-23T02:10:36;15.30;99.90
3792;DHT22;1911;53.768;11.474;2022-07-23T02:13:02;15.30;99.90
3792;DHT22;1911;53.768;11.474;2022-07-23T02:15:27;15.30;99.90
3792;DHT22;1911;53.768;11.474;2022-07-23T02:17:54;15.30;99.90
3792;DHT22;1911;53.768;11.474;2022-07-23T02:20:20;15.40;99.90
3792;DHT22;1911;53.768;11.474;2022-07-23T02:22:45;15.40;99.90
3792;DHT22;1911;53.768;11.474;2022-07-23T02:25:11;15.40;99.90
3792;DHT22;1911;53.768;11.474;2022-07-23T02:27:37;15.40;99.90
3792;DHT22;1911;53.768;11.474;2022-07-23T02:30:03;15.40;99.90
3792;DHT22;1911;53.768;11.474;2022-07-23T02:32:29;15.40;99.90
3792;DHT22;1911;53.768;11.474;2022-07-23T02:34:55;15.40;99.90
3792;DHT22;1911;53.768;11.474;2022-07-23T02:37:20;15.40;99.90
3792;DHT22;1911;53.768;11.474;2022-07-23T02:39:46;15.40;99.90
3792;DHT22;1911;53.768;11.474;2022-07-23T02:42:13;15.40;99.90
3792;DHT22;1911;53.768;11.474;2022-07-23T02:44:39;15.40;99.90
3792;DHT22;1911;53.768;11.474;2022-07-23T02:47:05;15.30;99.90
3792;DHT22;1911;53.768;11.474;2022-07-23T02:49:31;15.30;99.90
3792;DHT22;1911;53.768;11.474;2022-07-23T02:51:57;15.30;99.90
3792;DHT22;1911;53.768;11.474;2022-07-23T02:54:22;15.30;99.90
3792;DHT22;1911;53.768;11.474;2022-07-23T02:56:48;15.20;99.90
3792;DHT22;1911;53.768;11.474;2022-07-23T02:59:16;15.20;99.90
3792;DHT22;1911;53.768;11.474;2022-07-23T03:01:41;15.20;99.90
3792;DHT22;1911;53.768;11.474;2022-07-23T03:04:07;15.20;99.90
3792;DHT22;1911;53.768;11.474;2022-07-23T03:06:32;15.10;99.90
3792;DHT22;1911;53.768;11.474;2022-07-23T03:08:58;15.10;99.90
3792;DHT22;1911;53.768;11.474;2022-07-23T03:11:23;15.00;99.90
3792;DHT22;1911;53.768;11.474;2022-07-23T03:13:49;15.00;99.90
3792;DHT22;1911;53.768;11.474;2022-07-23T03:16:15;14.90;1.00
3792;DHT22;1911;53.768;11.474;2022-07-23T03:18:40;14.90;1.00
3792;DHT22;1911;53.768;11.474;2022-07-23T03:21:06;14.90;1.00
3792;DHT22;1911;53.768;11.474;2022-07-23T03:23:32;14.90;1.00
3792;DHT22;1911;53.768;11.474;2022-07-23T03:25:58;14.80;1.00
3792;DHT22;1911;53.768;11.474;2022-07-23T03:28:23;14.80;1.00
3792;DHT22;1911;53.768;11.474;2022-07-23T03:30:49;14.80;1.00
3792;DHT22;1911;53.768;11.474;2022-07-23T03:33:16;14.80;1.00
3792;DHT22;1911;53.768;11.474;2022-07-23T03:35:43;14.80;1.00
3792;DHT22;1911;53.768;11.474;2022-07-23T03:38:08;14.80;1.00
3792;DHT22;1911;53.768;11.474;2022-07-23T03:40:34;14.80;1.00
3792;DHT22;1911;53.768;11.474;2022-07-23T03:42:59;14.80;1.00
3792;DHT22;1911;53.768;11.474;2022-07-23T03:45:25;14.80;1.00
3792;DHT22;1911;53.768;11.474;2022-07-23T03:47:51;14.80;1.00
3792;DHT22;1911;53.768;11.474;2022-07-23T03:50:16;14.80;1.00
3792;DHT22;1911;53.768;11.474;2022-07-23T03:52:42;14.80;1.00
3792;DHT22;1911;53.768;11.474;2022-07-23T03:55:08;14.80;1.00
3792;DHT22;1911;53.768;11.474;2022-07-23T03:57:33;14.80;1.00
3792;DHT22;1911;53.768;11.474;2022-07-23T03:59:59;14.80;1.00
3792;DHT22;1911;53.768;11.474;2022-07-23T04:02:25;14.80;1.00
3792;DHT22;1911;53.768;11.474;2022-07-23T04:04:51;14.80;1.00
3792;DHT22;1911;53.768;11.474;2022-07-23T04:07:16;14.70;1.00
3792;DHT22;1911;53.768;11.474;2022-07-23T04:09:43;14.80;1.00
3792;DHT22;1911;53.768;11.474;2022-07-23T04:12:09;14.80;1.00
3792;DHT22;1911;53.768;11.474;2022-07-23T04:14:35;14.80;1.00
3792;DHT22;1911;53.768;11.474;2022-07-23T04:17:00;14.80;1.00
3792;DHT22;1911;53.768;11.474;2022-07-23T04:19:26;14.80;1.00
3792;DHT22;1911;53.768;11.474;2022-07-23T04:21:52;14.80;1.00
3792;DHT22;1911;53.768;11.474;2022-07-23T04:24:18;14.80;1.00
3792;DHT22;1911;53.768;11.474;2022-07-23T04:26:44;14.80;1.00
3792;DHT22;1911;53.768;11.474;2022-07-23T04:29:10;14.80;14.20
3792;DHT22;1911;53.768;11.474;2022-07-23T04:31:36;14.90;27.20
3792;DHT22;1911;53.768;11.474;2022-07-23T04:34:02;15.00;18.70
3792;DHT22;1911;53.768;11.474;2022-07-23T04:36:27;15.00;8.00
3792;DHT22;1911;53.768;11.474;2022-07-23T04:38:53;15.10;44.60
3792;DHT22;1911;53.768;11.474;2022-07-23T04:41:19;15.30;1.00
3792;DHT22;1911;53.768;11.474;2022-07-23T04:43:46;15.50;1.00
3792;DHT22;1911;53.768;11.474;2022-07-23T04:46:11;15.60;9.20
3792;DHT22;1911;53.768;11.474;2022-07-23T04:48:37;15.70;8.60
3792;DHT22;1911;53.768;11.474;2022-07-23T04:51:03;15.70;1.00
3792;DHT22;1911;53.768;11.474;2022-07-23T04:53:29;15.70;1.00
3792;DHT22;1911;53.768;11.474;2022-07-23T04:55:54;15.70;1.00
3792;DHT22;1911;53.768;11.474;2022-07-23T04:58:20;15.70;1.00
3792;DHT22;1911;53.768;11.474;2022-07-23T05:00:46;15.80;1.00
3792;DHT22;1911;53.768;11.474;2022-07-23T05:03:12;16.00;1.00
3792;DHT22;1911;53.768;11.474;2022-07-23T05:05:37;16.20;1.00
3792;DHT22;1911;53.768;11.474;2022-07-23T05:08:03;16.40;1.00
3792;DHT22;1911;53.768;11.474;2022-07-23T05:10:29;16.60;1.00
3792;DHT22;1911;53.768;11.474;2022-07-23T05:12:54;16.60;1.00
3792;DHT22;1911;53.768;11.474;2022-07-23T05:15:20;16.40;1.00
3792;DHT22;1911;53.768;11.474;2022-07-23T05:17:46;16.30;1.00
3792;DHT22;1911;53.768;11.474;2022-07-23T05:20:12;16.50;1.00
3792;DHT22;1911;53.768;11.474;2022-07-23T05:22:38;16.70;1.00
3792;DHT22;1911;53.768;11.474;2022-07-23T05:25:05;17.10;1.00
3792;DHT22;1911;53.768;11.474;2022-07-23T05:27:31;17.40;1.00
3792;DHT22;1911;53.768;11.474;2022-07-23T05:29:56;17.50;1.00
3792;DHT22;1911;53.768;11.474;2022-07-23T05:32:22;17.60;99.90
3792;DHT22;1911;53.768;11.474;2022-07-23T05:34:48;17.50;99.90
3792;DHT22;1911;53.768;11.474;2022-07-23T05:37:13;17.30;99.90
3792;DHT22;1911;53.768;11.474;2022-07-23T05:39:39;17.20;99.90
3792;DHT22;1911;53.768;11.474;2022-07-23T05:42:04;17.00;99.90
3792;DHT22;1911;53.768;11.474;2022-07-23T05:44:30;16.80;99.90
3792;DHT22;1911;53.768;11.474;2022-07-23T05:46:56;16.90;99.90
3792;DHT22;1911;53.768;11.474;2022-07-23T05:49:21;16.80;1.00
3792;DHT22;1911;53.768;11.474;2022-07-23T05:51:47;16.90;1.00
3792;DHT22;1911;53.768;11.474;2022-07-23T05:54:12;16.90;1.00
3792;DHT22;1911;53.768;11.474;2022-07-23T05:56:39;16.90;99.90
3792;DHT22;1911;53.768;11.474;2022-07-23T05:59:05;16.90;99.90
3792;DHT22;1911;53.768;11.474;2022-07-23T06:01:31;16.90;99.90
3792;DHT22;1911;53.768;11.474;2022-07-23T06:03:57;17.00;99.90
3792;DHT22;1911;53.768;11.474;2022-07-23T06:06:22;17.00;99.90
3792;DHT22;1911;53.768;11.474;2022-07-23T06:08:48;16.90;99.90
3792;DHT22;1911;53.768;11.474;2022-07-23T06:11:13;17.00;99.90
3792;DHT22;1911;53.768;11.474;2022-07-23T06:13:39;17.00;99.90
3792;DHT22;1911;53.768;11.474;2022-07-23T06:16:05;17.00;99.90
3792;DHT22;1911;53.768;11.474;2022-07-23T06:18:30;16.90;99.90
3792;DHT22;1911;53.768;11.474;2022-07-23T06:20:56;16.70;99.90
3792;DHT22;1911;53.768;11.474;2022-07-23T06:23:21;16.60;99.90
3792;DHT22;1911;53.768;11.474;2022-07-23T06:25:47;16.60;99.90
3792;DHT22;1911;53.768;11.474;2022-07-23T06:28:13;16.60;99.90
3792;DHT22;1911;53.768;11.474;2022-07-23T06:30:38;16.60;99.90
3792;DHT22;1911;53.768;11.474;2022-07-23T06:33:04;16.70;99.90
3792;DHT22;1911;53.768;11.474;2022-07-23T06:35:29;17.00;99.90
3792;DHT22;1911;53.768;11.474;2022-07-23T06:37:55;17.20;99.90
3792;DHT22;1911;53.768;11.474;2022-07-23T06:40:21;17.50;49.30
3792;DHT22;1911;53.768;11.474;2022-07-23T06:42:46;17.50;1.00
3792;DHT22;1911;53.768;11.474;2022-07-23T06:45:13;17.40;1.00
3792;DHT22;1911;53.768;11.474;2022-07-23T06:47:39;17.60;78.00
3792;DHT22;1911;53.768;11.474;2022-07-23T06:50:06;17.80;99.90
3792;DHT22;1911;53.768;11.474;2022-07-23T06:52:31;17.90;1.00
3792;DHT22;1911;53.768;11.474;2022-07-23T06:54:57;18.10;99.90
3792;DHT22;1911;53.768;11.474;2022-07-23T06:57:22;18.40;18.30
3792;DHT22;1911;53.768;11.474;2022-07-23T06:59:51;18.40;1.00
3792;DHT22;1911;53.768;11.474;2022-07-23T07:02:16;18.40;1.00
3792;DHT22;1911;53.768;11.474;2022-07-23T07:04:42;18.50;99.90
3792;DHT22;1911;53.768;11.474;2022-07-23T07:34:15;19.50;99.90
3792;DHT22;1911;53.768;11.474;2022-07-23T07:36:41;19.50;99.90
3792;DHT22;1911;53.768;11.474;2022-07-23T07:39:08;19.50;99.90
3792;DHT22;1911;53.768;11.474;2022-07-23T07:41:37;19.40;99.90
3792;DHT22;1911;53.768;11.474;2022-07-23T07:44:02;19.30;99.90
3792;DHT22;1911;53.768;11.474;2022-07-23T07:46:28;18.70;99.90
3792;DHT22;1911;53.768;11.474;2022-07-23T07:48:56;18.20;99.90
3792;DHT22;1911;53.768;11.474;2022-07-23T07:51:22;18.00;99.90
3792;DHT22;1911;53.768;11.474;2022-07-23T07:53:47;18.10;99.90
3792;DHT22;1911;53.768;11.474;2022-07-23T07:56:13;18.50;99.90
3792;DHT22;1911;53.768;11.474;2022-07-23T07:58:39;18.80;99.90
3792;DHT22;1911;53.768;11.474;2022-07-23T08:01:05;19.30;99.90
3792;DHT22;1911;53.768;11.474;2022-07-23T08:03:30;19.90;99.90
3792;DHT22;1911;53.768;11.474;2022-07-23T08:05:56;21.30;99.90
3792;DHT22;1911;53.768;11.474;2022-07-23T08:08:22;22.60;97.70
3792;DHT22;1911;53.768;11.474;2022-07-23T08:10:47;23.90;73.60
3792;DHT22;1911;53.768;11.474;2022-07-23T08:13:14;24.60;41.50
3792;DHT22;1911;53.768;11.474;2022-07-23T08:15:40;24.30;23.10
3792;DHT22;1911;53.768;11.474;2022-07-23T08:18:06;23.60;15.10
3792;DHT22;1911;53.768;11.474;2022-07-23T08:20:32;22.90;8.00
3792;DHT22;1911;53.768;11.474;2022-07-23T08:22:59;21.70;1.00
3792;DHT22;1911;53.768;11.474;2022-07-23T08:28:36;20.60;21.70
3792;DHT22;1911;53.768;11.474;2022-07-23T08:31:02;20.60;24.90
3792;DHT22;1911;53.768;11.474;2022-07-23T08:33:28;20.60;29.50
3792;DHT22;1911;53.768;11.474;2022-07-23T08:35:54;20.00;17.60
3792;DHT22;1911;53.768;11.474;2022-07-23T08:38:21;19.60;24.50
3792;DHT22;1911;53.768;11.474;2022-07-23T08:40:49;19.00;16.10
3792;DHT22;1911;53.768;11.474;2022-07-23T08:43:20;18.50;30.50
3792;DHT22;1911;53.768;11.474;2022-07-23T08:45:49;18.30;80.70
3792;DHT22;1911;53.768;11.474;2022-07-23T08:48:22;18.20;99.50
3792;DHT22;1911;53.768;11.474;2022-07-23T08:50:51;18.10;99.70
3792;DHT22;1911;53.768;11.474;2022-07-23T08:53:18;17.80;99.90
3792;DHT22;1911;53.768;11.474;2022-07-23T08:55:45;17.50;99.90
3792;DHT22;1911;53.768;11.474;2022-07-23T08:58:12;17.30;99.90
3792;DHT22;1911;53.768;11.474;2022-07-23T09:00:38;17.10;99.90
3792;DHT22;1911;53.768;11.474;2022-07-23T09:03:04;16.90;1.00
3792;DHT22;1911;53.768;11.474;2022-07-23T09:05:32;16.80;1.00
3792;DHT22;1911;53.768;11.474;2022-07-23T09:08:21;17.10;90.20
3792;DHT22;1911;53.768;11.474;2022-07-23T09:10:58;17.70;99.90
3792;DHT22;1911;53.768;11.474;2022-07-23T09:15:55;19.90;99.90
3792;DHT22;1911;53.768;11.474;2022-07-23T09:18:44;20.80;99.90
3792;DHT22;1911;53.768;11.474;2022-07-23T09:21:28;21.20;95.30
3792;DHT22;1911;53.768;11.474;2022-07-23T09:23:58;21.30;79.90
3792;DHT22;1911;53.768;11.474;2022-07-23T09:28:56;21.60;55.00
3792;DHT22;1911;53.768;11.474;2022-07-23T09:31:23;21.70;47.70
3792;DHT22;1911;53.768;11.474;2022-07-23T09:33:50;22.00;57.20
3792;DHT22;1911;53.768;11.474;2022-07-23T09:36:29;21.90;53.60
3792;DHT22;1911;53.768;11.474;2022-07-23T09:38:55;21.90;38.00
3792;DHT22;1911;53.768;11.474;2022-07-23T09:41:20;21.80;29.10
3792;DHT22;1911;53.768;11.474;2022-07-23T09:44:08;21.40;16.70
3792;DHT22;1911;53.768;11.474;2022-07-23T09:46:35;21.10;12.00
3792;DHT22;1911;53.768;11.474;2022-07-23T09:49:10;20.10;5.00
3792;DHT22;1911;53.768;11.474;2022-07-23T09:54:23;19.10;28.30
3792;DHT22;1911;53.768;11.474;2022-07-23T09:56:51;18.90;33.80
3792;DHT22;1911;53.768;11.474;2022-07-23T09:59:19;18.90;42.20
3792;DHT22;1911;53.768;11.474;2022-07-23T10:01:47;19.00;50.00
3792;DHT22;1911;53.768;11.474;2022-07-23T10:04:14;19.00;76.50
3792;DHT22;1911;53.768;11.474;2022-07-23T10:06:40;19.00;75.60
3792;DHT22;1911;53.768;11.474;2022-07-23T10:09:32;19.20;95.60
3792;DHT22;1911;53.768;11.474;2022-07-23T10:12:01;19.30;72.80
3792;DHT22;1911;53.768;11.474;2022-07-23T10:14:38;19.30;58.40
3792;DHT22;1911;53.768;11.474;2022-07-23T10:17:11;19.50;53.60
3792;DHT22;1911;53.768;11.474;2022-07-23T10:19:37;19.90;50.70
3792;DHT22;1911;53.768;11.474;2022-07-23T10:22:08;20.10;28.80
3792;DHT22;1911;53.768;11.474;2022-07-23T10:36:01;19.50;25.50
3792;DHT22;1911;53.768;11.474;2022-07-23T10:38:57;20.00;28.50
3792;DHT22;1911;53.768;11.474;2022-07-23T10:41:35;20.40;26.50
3792;DHT22;1911;53.768;11.474;2022-07-23T10:44:14;20.60;12.00
3792;DHT22;1911;53.768;11.474;2022-07-23T10:47:03;20.40;11.20
3792;DHT22;1911;53.768;11.474;2022-07-23T10:49:47;20.10;7.50
3792;DHT22;1911;53.768;11.474;2022-07-23T10:52:28;19.80;11.50
3792;DHT22;1911;53.768;11.474;2022-07-23T10:54:56;19.90;15.80
3792;DHT22;1911;53.768;11.474;2022-07-23T10:57:24;19.70;13.20
3792;DHT22;1911;53.768;11.474;2022-07-23T11:02:33;18.90;16.60
3792;DHT22;1911;53.768;11.474;2022-07-23T11:05:01;18.80;26.80
3792;DHT22;1911;53.768;11.474;2022-07-23T11:07:28;18.90;29.20
3792;DHT22;1911;53.768;11.474;2022-07-23T11:09:54;19.00;33.40
3792;DHT22;1911;53.768;11.474;2022-07-23T11:15:26;19.20;34.70
3792;DHT22;1911;53.768;11.474;2022-07-23T11:20:20;20.30;28.70
3792;DHT22;1911;53.768;11.474;2022-07-23T11:22:57;20.60;18.10
3792;DHT22;1911;53.768;11.474;2022-07-23T11:27:55;20.50;6.60
3792;DHT22;1911;53.768;11.474;2022-07-23T11:35:46;19.80;1.90
3792;DHT22;1911;53.768;11.474;2022-07-23T11:38:22;19.80;5.40
3792;DHT22;1911;53.768;11.474;2022-07-23T11:40:54;19.90;3.00
3792;DHT22;1911;53.768;11.474;2022-07-23T11:43:21;19.90;1.00
3792;DHT22;1911;53.768;11.474;2022-07-23T11:45:52;19.90;1.00
3792;DHT22;1911;53.768;11.474;2022-07-23T11:48:29;20.10;1.00
3792;DHT22;1911;53.768;11.474;2022-07-23T11:50:56;20.20;1.40
3792;DHT22;1911;53.768;11.474;2022-07-23T11:53:30;20.40;2.80
3792;DHT22;1911;53.768;11.474;2022-07-23T11:56:08;20.30;1.00
3792;DHT22;1911;53.768;11.474;2022-07-23T11:58:34;20.20;1.00
3792;DHT22;1911;53.768;11.474;2022-07-23T12:01:00;20.10;1.00
3792;DHT22;1911;53.768;11.474;2022-07-23T12:03:25;20.00;11.60
3792;DHT22;1911;53.768;11.474;2022-07-23T12:05:56;19.90;1.00
3792;DHT22;1911;53.768;11.474;2022-07-23T12:08:22;19.70;1.00
3792;DHT22;1911;53.768;11.474;2022-07-23T12:10:48;19.60;1.00
3792;DHT22;1911;53.768;11.474;2022-07-23T12:13:17;19.70;1.00
3792;DHT22;1911;53.768;11.474;2022-07-23T12:15:46;19.70;1.00
3792;DHT22;1911;53.768;11.474;2022-07-23T12:18:16;19.60;1.00
3792;DHT22;1911;53.768;11.474;2022-07-23T12:20:50;19.80;1.00
3792;DHT22;1911;53.768;11.474;2022-07-23T12:23:18;19.70;1.00
3792;DHT22;1911;53.768;11.474;2022-07-23T12:25:46;19.50;1.00
3792;DHT22;1911;53.768;11.474;2022-07-23T12:28:17;19.20;1.00
3792;DHT22;1911;53.768;11.474;2022-07-23T12:30:51;19.20;1.00
3792;DHT22;1911;53.768;11.474;2022-07-23T12:33:31;19.20;11.00
3792;DHT22;1911;53.768;11.474;2022-07-23T12:35:58;19.50;1.00
3792;DHT22;1911;53.768;11.474;2022-07-23T12:38:26;19.50;1.60
3792;DHT22;1911;53.768;11.474;2022-07-23T12:40:56;19.50;1.00
3792;DHT22;1911;53.768;11.474;2022-07-23T12:43:26;19.80;1.30
3792;DHT22;1911;53.768;11.474;2022-07-23T12:45:57;20.10;2.10
3792;DHT22;1911;53.768;11.474;2022-07-23T12:50:54;20.70;1.00
3792;DHT22;1911;53.768;11.474;2022-07-23T12:55:56;20.80;2.40
3792;DHT22;1911;53.768;11.474;2022-07-23T12:58:23;20.60;1.00
3792;DHT22;1911;53.768;11.474;2022-07-23T13:05:48;20.50;1.00
3792;DHT22;1911;53.768;11.474;2022-07-23T13:08:13;20.30;1.00
3792;DHT22;1911;53.768;11.474;2022-07-23T13:10:39;20.50;1.00
3792;DHT22;1911;53.768;11.474;2022-07-23T13:13:11;20.80;1.00
3792;DHT22;1911;53.768;11.474;2022-07-23T13:15:51;20.90;1.00
3792;DHT22;1911;53.768;11.474;2022-07-23T13:18:21;21.30;1.00
3792;DHT22;1911;53.768;11.474;2022-07-23T13:20:47;21.30;1.00
3792;DHT22;1911;53.768;11.474;2022-07-23T13:23:14;21.50;1.00
3792;DHT22;1911;53.768;11.474;2022-07-23T13:25:40;21.50;1.00
3792;DHT22;1911;53.768;11.474;2022-07-23T13:28:05;21.40;1.00
3792;DHT22;1911;53.768;11.474;2022-07-23T13:30:31;21.60;1.00
3792;DHT22;1911;53.768;11.474;2022-07-23T13:32:57;21.60;1.00
3792;DHT22;1911;53.768;11.474;2022-07-23T13:35:23;21.40;1.00
3792;DHT22;1911;53.768;11.474;2022-07-23T13:37:48;21.30;1.00
3792;DHT22;1911;53.768;11.474;2022-07-23T13:40:14;21.20;1.00
3792;DHT22;1911;53.768;11.474;2022-07-23T13:42:40;21.00;1.00
3792;DHT22;1911;53.768;11.474;2022-07-23T13:45:06;20.30;1.00
3792;DHT22;1911;53.768;11.474;2022-07-23T13:47:32;19.90;1.00
3792;DHT22;1911;53.768;11.474;2022-07-23T13:49:58;19.90;1.00
3792;DHT22;1911;53.768;11.474;2022-07-23T13:52:24;20.00;1.00
3792;DHT22;1911;53.768;11.474;2022-07-23T13:54:50;20.00;1.00
3792;DHT22;1911;53.768;11.474;2022-07-23T13:57:16;20.00;1.00
3792;DHT22;1911;53.768;11.474;2022-07-23T13:59:41;20.10;1.00
3792;DHT22;1911;53.768;11.474;2022-07-23T14:02:07;20.10;1.00
3792;DHT22;1911;53.768;11.474;2022-07-23T14:04:33;20.10;1.00
3792;DHT22;1911;53.768;11.474;2022-07-23T14:07:00;20.30;1.00
3792;DHT22;1911;53.768;11.474;2022-07-23T14:09:26;20.60;1.00
3792;DHT22;1911;53.768;11.474;2022-07-23T14:11:52;20.80;1.00
3792;DHT22;1911;53.768;11.474;2022-07-23T14:14:18;21.00;1.00
3792;DHT22;1911;53.768;11.474;2022-07-23T14:16:44;21.10;1.00
3792;DHT22;1911;53.768;11.474;2022-07-23T14:19:10;21.00;1.00
3792;DHT22;1911;53.768;11.474;2022-07-23T14:21:36;20.60;1.00
3792;DHT22;1911;53.768;11.474;2022-07-23T14:24:03;20.70;1.00
3792;DHT22;1911;53.768;11.474;2022-07-23T14:26:29;20.60;1.00
3792;DHT22;1911;53.768;11.474;2022-07-23T14:28:55;20.70;1.00
3792;DHT22;1911;53.768;11.474;2022-07-23T14:31:21;20.90;1.00
3792;DHT22;1911;53.768;11.474;2022-07-23T14:33:47;20.90;1.00
3792;DHT22;1911;53.768;11.474;2022-07-23T14:36:12;21.00;1.00
3792;DHT22;1911;53.768;11.474;2022-07-23T14:38:38;21.30;1.00
3792;DHT22;1911;53.768;11.474;2022-07-23T14:41:04;21.40;1.00
3792;DHT22;1911;53.768;11.474;2022-07-23T14:43:32;21.60;1.00
3792;DHT22;1911;53.768;11.474;2022-07-23T14:45:58;21.40;1.00
3792;DHT22;1911;53.768;11.474;2022-07-23T14:48:23;20.90;1.00
3792;DHT22;1911;53.768;11.474;2022-07-23T14:50:49;20.80;1.00
3792;DHT22;1911;53.768;11.474;2022-07-23T14:53:15;20.70;1.00
3792;DHT22;1911;53.768;11.474;2022-07-23T14:55:40;21.00;1.00
3792;DHT22;1911;53.768;11.474;2022-07-23T14:58:06;21.10;1.00
3792;DHT22;1911;53.768;11.474;2022-07-23T15:00:32;21.00;1.00
3792;DHT22;1911;53.768;11.474;2022-07-23T15:02:57;20.90;1.00
3792;DHT22;1911;53.768;11.474;2022-07-23T15:05:23;20.70;1.00
3792;DHT22;1911;53.768;11.474;2022-07-23T15:07:49;20.70;1.00
3792;DHT22;1911;53.768;11.474;2022-07-23T15:10:14;20.80;1.00
3792;DHT22;1911;53.768;11.474;2022-07-23T15:12:40;20.70;1.00
3792;DHT22;1911;53.768;11.474;2022-07-23T15:15:06;20.60;1.00
3792;DHT22;1911;53.768;11.474;2022-07-23T15:17:33;20.80;1.00
3792;DHT22;1911;53.768;11.474;2022-07-23T15:19:58;20.80;1.00
3792;DHT22;1911;53.768;11.474;2022-07-23T15:22:24;20.70;1.00
3792;DHT22;1911;53.768;11.474;2022-07-23T15:24:50;20.50;1.00
3792;DHT22;1911;53.768;11.474;2022-07-23T15:27:16;20.40;1.00
3792;DHT22;1911;53.768;11.474;2022-07-23T15:29:43;20.30;1.00
3792;DHT22;1911;53.768;11.474;2022-07-23T15:32:09;20.30;1.00
3792;DHT22;1911;53.768;11.474;2022-07-23T15:34:36;20.10;1.00
3792;DHT22;1911;53.768;11.474;2022-07-23T15:37:02;20.00;1.00
3792;DHT22;1911;53.768;11.474;2022-07-23T15:39:27;20.20;1.00
3792;DHT22;1911;53.768;11.474;2022-07-23T15:41:53;20.30;1.00
3792;DHT22;1911;53.768;11.474;2022-07-23T15:44:19;20.10;1.00
3792;DHT22;1911;53.768;11.474;2022-07-23T15:46:45;20.00;1.00
3792;DHT22;1911;53.768;11.474;2022-07-23T15:49:10;19.80;1.00
3792;DHT22;1911;53.768;11.474;2022-07-23T15:51:38;19.70;1.00
3792;DHT22;1911;53.768;11.474;2022-07-23T15:54:04;19.80;1.00
3792;DHT22;1911;53.768;11.474;2022-07-23T15:56:29;19.80;1.00
3792;DHT22;1911;53.768;11.474;2022-07-23T15:58:55;19.90;1.00
3792;DHT22;1911;53.768;11.474;2022-07-23T16:01:21;19.80;1.00
3792;DHT22;1911;53.768;11.474;2022-07-23T16:03:46;19.60;1.00
3792;DHT22;1911;53.768;11.474;2022-07-23T16:06:12;19.40;1.00
3792;DHT22;1911;53.768;11.474;2022-07-23T16:08:38;19.40;1.00
3792;DHT22;1911;53.768;11.474;2022-07-23T16:11:03;19.40;1.00
3792;DHT22;1911;53.768;11.474;2022-07-23T16:13:29;19.30;1.00
3792;DHT22;1911;53.768;11.474;2022-07-23T16:15:54;19.50;1.00
3792;DHT22;1911;53.768;11.474;2022-07-23T16:18:21;19.30;1.00
3792;DHT22;1911;53.768;11.474;2022-07-23T16:20:49;19.30;1.00
3792;DHT22;1911;53.768;11.474;2022-07-23T16:23:15;19.10;1.00
3792;DHT22;1911;53.768;11.474;2022-07-23T16:25:41;19.30;1.00
3792;DHT22;1911;53.768;11.474;2022-07-23T16:28:07;19.30;1.00
3792;DHT22;1911;53.768;11.474;2022-07-23T16:30:33;19.40;1.00
3792;DHT22;1911;53.768;11.474;2022-07-23T16:33:00;19.20;1.00
3792;DHT22;1911;53.768;11.474;2022-07-23T16:35:26;19.10;1.00
3792;DHT22;1911;53.768;11.474;2022-07-23T16:37:52;19.00;1.00
3792;DHT22;1911;53.768;11.474;2022-07-23T16:40:18;19.00;1.00
3792;DHT22;1911;53.768;11.474;2022-07-23T16:42:44;19.00;1.00
3792;DHT22;1911;53.768;11.474;2022-07-23T16:45:10;18.90;1.00
3792;DHT22;1911;53.768;11.474;2022-07-23T16:47:37;18.70;1.00
3792;DHT22;1911;53.768;11.474;2022-07-23T16:50:04;18.60;1.00
3792;DHT22;1911;53.768;11.474;2022-07-23T16:52:30;18.80;1.00
3792;DHT22;1911;53.768;11.474;2022-07-23T16:54:56;18.80;1.00
3792;DHT22;1911;53.768;11.474;2022-07-23T16:57:22;18.80;1.00
3792;DHT22;1911;53.768;11.474;2022-07-23T16:59:48;18.60;1.00
3792;DHT22;1911;53.768;11.474;2022-07-23T17:02:14;18.50;1.00
3792;DHT22;1911;53.768;11.474;2022-07-23T17:04:40;18.40;2.90
3792;DHT22;1911;53.768;11.474;2022-07-23T17:07:07;18.40;3.70
3792;DHT22;1911;53.768;11.474;2022-07-23T17:09:33;18.40;6.70